sensor_id;sensor_type;location;lat;lon;timestamp;P1;durP1;ratioP1;P2;durP2;ratioP2
56045;SDS011;41913;51.030;3.706;2023-03-16T00:01:16;0.82;;;0.82;;
56045;SDS011;41913;51.030;3.706;2023-03-16T00:03:42;1.02;;;1.00;;
56045;SDS011;41913;51.030;3.706;2023-03-16T00:06:08;1.05;;;1.05;;
56045;SDS011;41913;51.030;3.706;2023-03-16T00:08:34;2.45;;;1.35;;
56045;SDS011;41913;51.030;3.706;2023-03-16T00:11:00;0.90;;;0.90;;
56045;SDS011;41913;51.030;3.706;2023-03-16T00:13:26;1.10;;;1.10;;
56045;SDS011;41913;51.030;3.706;2023-03-16T00:18:19;0.80;;;0.80;;
56045;SDS011;41913;51.030;3.706;2023-03-16T00:20:49;1.33;;;1.23;;
56045;SDS011;41913;51.030;3.706;2023-03-16T00:23:17;1.35;;;1.25;;
56045;SDS011;41913;51.030;3.706;2023-03-16T00:25:44;0.95;;;0.95;;
56045;SDS011;41913;51.030;3.706;2023-03-16T00:28:09;1.20;;;1.20;;
56045;SDS011;41913;51.030;3.706;2023-03-16T00:30:38;0.90;;;0.90;;
56045;SDS011;41913;51.030;3.706;2023-03-16T00:33:03;1.20;;;1.15;;
56045;SDS011;41913;51.030;3.706;2023-03-16T00:35:29;1.25;;;1.17;;
56045;SDS011;41913;51.030;3.706;2023-03-16T00:37:58;0.90;;;0.80;;
56045;SDS011;41913;51.030;3.706;2023-03-16T00:40:24;0.90;;;0.90;;
56045;SDS011;41913;51.030;3.706;2023-03-16T00:42:49;0.90;;;0.90;;
56045;SDS011;41913;51.030;3.706;2023-03-16T00:45:15;1.08;;;1.08;;
56045;SDS011;41913;51.030;3.706;2023-03-16T00:47:41;1.33;;;1.00;;
56045;SDS011;41913;51.030;3.706;2023-03-16T00:50:07;1.33;;;1.10;;
56045;SDS011;41913;51.030;3.706;2023-03-16T00:52:33;0.90;;;0.90;;
56045;SDS011;41913;51.030;3.706;2023-03-16T00:54:59;2.25;;;1.50;;
56045;SDS011;41913;51.030;3.706;2023-03-16T00:57:27;0.80;;;0.80;;
56045;SDS011;41913;51.030;3.706;2023-03-16T00:59:54;0.82;;;0.82;;
56045;SDS011;41913;51.030;3.706;2023-03-16T01:02:20;0.95;;;0.95;;
56045;SDS011;41913;51.030;3.706;2023-03-16T01:04:48;0.80;;;0.80;;
56045;SDS011;41913;51.030;3.706;2023-03-16T01:07:15;1.05;;;1.05;;
56045;SDS011;41913;51.030;3.706;2023-03-16T01:09:41;0.85;;;0.85;;
56045;SDS011;41913;51.030;3.706;2023-03-16T01:12:12;0.70;;;0.60;;
56045;SDS011;41913;51.030;3.706;2023-03-16T01:14:40;0.85;;;0.85;;
56045;SDS011;41913;51.030;3.706;2023-03-16T01:17:09;0.80;;;0.80;;
56045;SDS011;41913;51.030;3.706;2023-03-16T01:19:38;1.00;;;1.00;;
56045;SDS011;41913;51.030;3.706;2023-03-16T01:22:05;0.85;;;0.85;;
56045;SDS011;41913;51.030;3.706;2023-03-16T01:24:32;0.90;;;0.90;;
56045;SDS011;41913;51.030;3.706;2023-03-16T01:27:01;1.08;;;0.98;;
56045;SDS011;41913;51.030;3.706;2023-03-16T01:29:28;1.02;;;1.02;;
56045;SDS011;41913;51.030;3.706;2023-03-16T01:31:54;0.63;;;0.63;;
56045;SDS011;41913;51.030;3.706;2023-03-16T01:34:20;1.15;;;1.15;;
56045;SDS011;41913;51.030;3.706;2023-03-16T01:36:47;0.90;;;0.90;;
56045;SDS011;41913;51.030;3.706;2023-03-16T01:39:14;0.90;;;0.90;;
56045;SDS011;41913;51.030;3.706;2023-03-16T01:41:40;0.90;;;0.90;;
56045;SDS011;41913;51.030;3.706;2023-03-16T01:44:10;0.75;;;0.75;;
56045;SDS011;41913;51.030;3.706;2023-03-16T01:46:41;0.77;;;0.77;;
56045;SDS011;41913;51.030;3.706;2023-03-16T01:49:24;0.60;;;0.60;;
56045;SDS011;41913;51.030;3.706;2023-03-16T01:57:17;1.13;;;0.95;;
56045;SDS011;41913;51.030;3.706;2023-03-16T01:59:56;0.55;;;0.55;;
56045;SDS011;41913;51.030;3.706;2023-03-16T02:02:34;0.85;;;0.63;;
56045;SDS011;41913;51.030;3.706;2023-03-16T02:07:45;1.13;;;1.00;;
56045;SDS011;41913;51.030;3.706;2023-03-16T02:10:13;0.70;;;0.70;;
56045;SDS011;41913;51.030;3.706;2023-03-16T02:12:42;1.05;;;1.05;;
56045;SDS011;41913;51.030;3.706;2023-03-16T02:15:08;0.60;;;0.60;;
56045;SDS011;41913;51.030;3.706;2023-03-16T02:17:36;1.05;;;0.80;;
56045;SDS011;41913;51.030;3.706;2023-03-16T02:22:48;0.75;;;0.75;;
56045;SDS011;41913;51.030;3.706;2023-03-16T02:25:19;0.60;;;0.60;;
56045;SDS011;41913;51.030;3.706;2023-03-16T02:32:44;1.15;;;0.70;;
56045;SDS011;41913;51.030;3.706;2023-03-16T02:35:13;0.88;;;0.68;;
56045;SDS011;41913;51.030;3.706;2023-03-16T02:37:39;0.80;;;0.80;;
56045;SDS011;41913;51.030;3.706;2023-03-16T02:43:14;0.50;;;0.50;;
56045;SDS011;41913;51.030;3.706;2023-03-16T02:45:45;0.50;;;0.50;;
56045;SDS011;41913;51.030;3.706;2023-03-16T02:48:37;0.70;;;0.70;;
56045;SDS011;41913;51.030;3.706;2023-03-16T02:51:03;0.40;;;0.40;;
56045;SDS011;41913;51.030;3.706;2023-03-16T02:53:29;0.63;;;0.63;;
56045;SDS011;41913;51.030;3.706;2023-03-16T02:55:55;0.47;;;0.47;;
56045;SDS011;41913;51.030;3.706;2023-03-16T02:58:20;0.57;;;0.57;;
56045;SDS011;41913;51.030;3.706;2023-03-16T03:00:46;0.40;;;0.40;;
56045;SDS011;41913;51.030;3.706;2023-03-16T03:03:12;0.65;;;0.65;;
56045;SDS011;41913;51.030;3.706;2023-03-16T03:05:38;0.43;;;0.43;;
56045;SDS011;41913;51.030;3.706;2023-03-16T03:08:04;1.05;;;0.50;;
56045;SDS011;41913;51.030;3.706;2023-03-16T03:10:30;0.60;;;0.60;;
56045;SDS011;41913;51.030;3.706;2023-03-16T03:12:56;0.40;;;0.40;;
56045;SDS011;41913;51.030;3.706;2023-03-16T03:15:22;0.40;;;0.40;;
56045;SDS011;41913;51.030;3.706;2023-03-16T03:17:48;0.52;;;0.52;;
56045;SDS011;41913;51.030;3.706;2023-03-16T03:20:14;0.32;;;0.32;;
56045;SDS011;41913;51.030;3.706;2023-03-16T03:22:41;0.50;;;0.50;;
56045;SDS011;41913;51.030;3.706;2023-03-16T03:25:11;0.65;;;0.65;;
56045;SDS011;41913;51.030;3.706;2023-03-16T03:27:39;0.70;;;0.70;;
56045;SDS011;41913;51.030;3.706;2023-03-16T03:30:07;0.43;;;0.43;;
56045;SDS011;41913;51.030;3.706;2023-03-16T03:32:34;0.45;;;0.45;;
56045;SDS011;41913;51.030;3.706;2023-03-16T03:35:00;0.73;;;0.73;;
56045;SDS011;41913;51.030;3.706;2023-03-16T03:37:26;0.73;;;0.55;;
56045;SDS011;41913;51.030;3.706;2023-03-16T03:39:52;0.60;;;0.60;;
56045;SDS011;41913;51.030;3.706;2023-03-16T03:42:18;0.60;;;0.60;;
56045;SDS011;41913;51.030;3.706;2023-03-16T03:44:44;0.63;;;0.63;;
56045;SDS011;41913;51.030;3.706;2023-03-16T03:47:10;0.50;;;0.50;;
56045;SDS011;41913;51.030;3.706;2023-03-16T03:49:35;0.38;;;0.38;;
56045;SDS011;41913;51.030;3.706;2023-03-16T03:52:01;0.63;;;0.63;;
56045;SDS011;41913;51.030;3.706;2023-03-16T03:54:29;0.40;;;0.40;;
56045;SDS011;41913;51.030;3.706;2023-03-16T03:56:55;0.60;;;0.60;;
56045;SDS011;41913;51.030;3.706;2023-03-16T03:59:21;0.52;;;0.52;;
56045;SDS011;41913;51.030;3.706;2023-03-16T04:01:47;0.32;;;0.32;;
56045;SDS011;41913;51.030;3.706;2023-03-16T04:04:13;0.65;;;0.50;;
56045;SDS011;41913;51.030;3.706;2023-03-16T04:06:40;0.55;;;0.40;;
56045;SDS011;41913;51.030;3.706;2023-03-16T04:09:07;0.30;;;0.30;;
56045;SDS011;41913;51.030;3.706;2023-03-16T04:11:32;0.40;;;0.40;;
56045;SDS011;41913;51.030;3.706;2023-03-16T04:13:58;1.88;;;0.32;;
56045;SDS011;41913;51.030;3.706;2023-03-16T04:16:24;0.60;;;0.60;;
56045;SDS011;41913;51.030;3.706;2023-03-16T04:18:53;0.47;;;0.47;;
56045;SDS011;41913;51.030;3.706;2023-03-16T04:21:20;0.75;;;0.63;;
56045;SDS011;41913;51.030;3.706;2023-03-16T04:23:47;0.63;;;0.50;;
56045;SDS011;41913;51.030;3.706;2023-03-16T04:26:14;0.77;;;0.77;;
56045;SDS011;41913;51.030;3.706;2023-03-16T04:28:40;0.40;;;0.40;;
56045;SDS011;41913;51.030;3.706;2023-03-16T04:31:08;0.35;;;0.35;;
56045;SDS011;41913;51.030;3.706;2023-03-16T04:33:35;0.30;;;0.30;;
56045;SDS011;41913;51.030;3.706;2023-03-16T04:36:02;0.32;;;0.32;;
56045;SDS011;41913;51.030;3.706;2023-03-16T04:38:28;0.32;;;0.30;;
56045;SDS011;41913;51.030;3.706;2023-03-16T04:40:57;0.73;;;0.68;;
56045;SDS011;41913;51.030;3.706;2023-03-16T04:43:23;0.40;;;0.40;;
56045;SDS011;41913;51.030;3.706;2023-03-16T04:45:49;0.73;;;0.40;;
56045;SDS011;41913;51.030;3.706;2023-03-16T04:48:15;0.40;;;0.40;;
56045;SDS011;41913;51.030;3.706;2023-03-16T04:50:41;0.45;;;0.45;;
56045;SDS011;41913;51.030;3.706;2023-03-16T04:53:07;0.30;;;0.30;;
56045;SDS011;41913;51.030;3.706;2023-03-16T04:55:32;0.32;;;0.32;;
56045;SDS011;41913;51.030;3.706;2023-03-16T04:57:58;0.20;;;0.20;;
56045;SDS011;41913;51.030;3.706;2023-03-16T05:00:24;0.20;;;0.20;;
56045;SDS011;41913;51.030;3.706;2023-03-16T05:02:50;0.40;;;0.40;;
56045;SDS011;41913;51.030;3.706;2023-03-16T05:05:16;0.50;;;0.50;;
56045;SDS011;41913;51.030;3.706;2023-03-16T05:07:43;0.40;;;0.40;;
56045;SDS011;41913;51.030;3.706;2023-03-16T05:10:10;0.47;;;0.47;;
56045;SDS011;41913;51.030;3.706;2023-03-16T05:12:37;0.35;;;0.35;;
56045;SDS011;41913;51.030;3.706;2023-03-16T05:15:03;0.40;;;0.40;;
56045;SDS011;41913;51.030;3.706;2023-03-16T05:17:29;0.40;;;0.40;;
56045;SDS011;41913;51.030;3.706;2023-03-16T05:19:55;0.30;;;0.30;;
56045;SDS011;41913;51.030;3.706;2023-03-16T05:22:21;0.45;;;0.45;;
56045;SDS011;41913;51.030;3.706;2023-03-16T05:24:47;0.30;;;0.30;;
56045;SDS011;41913;51.030;3.706;2023-03-16T05:27:13;0.25;;;0.25;;
56045;SDS011;41913;51.030;3.706;2023-03-16T05:29:39;0.30;;;0.30;;
56045;SDS011;41913;51.030;3.706;2023-03-16T05:32:05;0.30;;;0.30;;
56045;SDS011;41913;51.030;3.706;2023-03-16T05:34:31;0.20;;;0.20;;
56045;SDS011;41913;51.030;3.706;2023-03-16T05:36:56;0.30;;;0.30;;
56045;SDS011;41913;51.030;3.706;2023-03-16T05:39:22;0.30;;;0.30;;
56045;SDS011;41913;51.030;3.706;2023-03-16T05:41:48;0.20;;;0.20;;
56045;SDS011;41913;51.030;3.706;2023-03-16T05:44:14;0.28;;;0.28;;
56045;SDS011;41913;51.030;3.706;2023-03-16T05:46:40;0.50;;;0.50;;
56045;SDS011;41913;51.030;3.706;2023-03-16T05:49:05;0.73;;;0.50;;
56045;SDS011;41913;51.030;3.706;2023-03-16T05:51:31;0.35;;;0.35;;
56045;SDS011;41913;51.030;3.706;2023-03-16T05:53:57;0.57;;;0.38;;
56045;SDS011;41913;51.030;3.706;2023-03-16T05:56:23;0.20;;;0.20;;
56045;SDS011;41913;51.030;3.706;2023-03-16T05:58:50;0.30;;;0.30;;
56045;SDS011;41913;51.030;3.706;2023-03-16T06:01:17;0.40;;;0.40;;
56045;SDS011;41913;51.030;3.706;2023-03-16T06:03:44;0.40;;;0.40;;
56045;SDS011;41913;51.030;3.706;2023-03-16T06:06:11;0.35;;;0.35;;
56045;SDS011;41913;51.030;3.706;2023-03-16T06:08:37;0.30;;;0.30;;
56045;SDS011;41913;51.030;3.706;2023-03-16T06:11:03;0.38;;;0.38;;
56045;SDS011;41913;51.030;3.706;2023-03-16T06:13:29;0.40;;;0.40;;
56045;SDS011;41913;51.030;3.706;2023-03-16T06:15:55;0.28;;;0.28;;
56045;SDS011;41913;51.030;3.706;2023-03-16T06:18:21;0.20;;;0.20;;
56045;SDS011;41913;51.030;3.706;2023-03-16T06:20:46;0.35;;;0.35;;
56045;SDS011;41913;51.030;3.706;2023-03-16T06:23:12;0.30;;;0.30;;
56045;SDS011;41913;51.030;3.706;2023-03-16T06:25:38;0.40;;;0.40;;
56045;SDS011;41913;51.030;3.706;2023-03-16T06:28:05;0.20;;;0.20;;
56045;SDS011;41913;51.030;3.706;2023-03-16T06:30:32;0.30;;;0.30;;
56045;SDS011;41913;51.030;3.706;2023-03-16T06:32:57;1.40;;;0.50;;
56045;SDS011;41913;51.030;3.706;2023-03-16T06:35:24;0.40;;;0.40;;
56045;SDS011;41913;51.030;3.706;2023-03-16T06:37:50;0.63;;;0.20;;
56045;SDS011;41913;51.030;3.706;2023-03-16T06:40:16;0.60;;;0.60;;
56045;SDS011;41913;51.030;3.706;2023-03-16T06:42:42;0.47;;;0.30;;
56045;SDS011;41913;51.030;3.706;2023-03-16T06:45:08;2.55;;;0.70;;
56045;SDS011;41913;51.030;3.706;2023-03-16T06:47:35;2.03;;;0.60;;
56045;SDS011;41913;51.030;3.706;2023-03-16T06:50:01;0.75;;;0.70;;
56045;SDS011;41913;51.030;3.706;2023-03-16T06:52:28;3.42;;;0.30;;
56045;SDS011;41913;51.030;3.706;2023-03-16T06:54:54;0.93;;;0.47;;
56045;SDS011;41913;51.030;3.706;2023-03-16T06:57:22;1.10;;;0.40;;
56045;SDS011;41913;51.030;3.706;2023-03-16T06:59:48;0.43;;;0.43;;
56045;SDS011;41913;51.030;3.706;2023-03-16T07:02:13;2.80;;;1.05;;
56045;SDS011;41913;51.030;3.706;2023-03-16T07:04:41;0.50;;;0.50;;
56045;SDS011;41913;51.030;3.706;2023-03-16T07:07:07;1.35;;;0.85;;
56045;SDS011;41913;51.030;3.706;2023-03-16T07:09:33;1.02;;;0.95;;
56045;SDS011;41913;51.030;3.706;2023-03-16T07:11:58;1.00;;;0.73;;
56045;SDS011;41913;51.030;3.706;2023-03-16T07:14:25;2.25;;;0.50;;
56045;SDS011;41913;51.030;3.706;2023-03-16T07:16:51;0.50;;;0.50;;
56045;SDS011;41913;51.030;3.706;2023-03-16T07:19:17;0.80;;;0.80;;
56045;SDS011;41913;51.030;3.706;2023-03-16T07:21:43;1.30;;;0.50;;
56045;SDS011;41913;51.030;3.706;2023-03-16T07:24:09;0.55;;;0.25;;
56045;SDS011;41913;51.030;3.706;2023-03-16T07:26:36;1.35;;;0.43;;
56045;SDS011;41913;51.030;3.706;2023-03-16T07:29:02;0.60;;;0.60;;
56045;SDS011;41913;51.030;3.706;2023-03-16T07:31:32;0.50;;;0.50;;
56045;SDS011;41913;51.030;3.706;2023-03-16T07:33:58;0.35;;;0.30;;
56045;SDS011;41913;51.030;3.706;2023-03-16T07:36:27;0.32;;;0.32;;
56045;SDS011;41913;51.030;3.706;2023-03-16T07:38:53;0.75;;;0.57;;
56045;SDS011;41913;51.030;3.706;2023-03-16T07:41:20;2.75;;;0.63;;
56045;SDS011;41913;51.030;3.706;2023-03-16T07:43:46;0.40;;;0.40;;
56045;SDS011;41913;51.030;3.706;2023-03-16T07:46:12;0.85;;;0.50;;
56045;SDS011;41913;51.030;3.706;2023-03-16T07:48:38;1.48;;;0.40;;
56045;SDS011;41913;51.030;3.706;2023-03-16T07:51:06;1.08;;;0.30;;
56045;SDS011;41913;51.030;3.706;2023-03-16T07:53:33;0.20;;;0.20;;
56045;SDS011;41913;51.030;3.706;2023-03-16T07:55:59;0.40;;;0.40;;
56045;SDS011;41913;51.030;3.706;2023-03-16T07:58:25;2.83;;;0.52;;
56045;SDS011;41913;51.030;3.706;2023-03-16T08:00:55;0.63;;;0.60;;
56045;SDS011;41913;51.030;3.706;2023-03-16T08:03:21;1.67;;;0.75;;
56045;SDS011;41913;51.030;3.706;2023-03-16T08:05:47;0.40;;;0.40;;
56045;SDS011;41913;51.030;3.706;2023-03-16T08:08:14;0.60;;;0.60;;
56045;SDS011;41913;51.030;3.706;2023-03-16T08:10:40;0.20;;;0.20;;
56045;SDS011;41913;51.030;3.706;2023-03-16T08:13:06;0.40;;;0.40;;
56045;SDS011;41913;51.030;3.706;2023-03-16T08:15:32;0.40;;;0.40;;
56045;SDS011;41913;51.030;3.706;2023-03-16T08:17:58;1.17;;;0.47;;
56045;SDS011;41913;51.030;3.706;2023-03-16T08:20:28;0.30;;;0.30;;
56045;SDS011;41913;51.030;3.706;2023-03-16T08:22:54;3.65;;;0.40;;
56045;SDS011;41913;51.030;3.706;2023-03-16T08:25:20;0.25;;;0.25;;
56045;SDS011;41913;51.030;3.706;2023-03-16T08:27:46;0.20;;;0.20;;
56045;SDS011;41913;51.030;3.706;2023-03-16T08:30:13;0.57;;;0.35;;
56045;SDS011;41913;51.030;3.706;2023-03-16T08:32:39;0.40;;;0.40;;
56045;SDS011;41913;51.030;3.706;2023-03-16T08:35:06;0.28;;;0.28;;
56045;SDS011;41913;51.030;3.706;2023-03-16T08:37:33;0.30;;;0.30;;
56045;SDS011;41913;51.030;3.706;2023-03-16T08:39:59;0.30;;;0.30;;
56045;SDS011;41913;51.030;3.706;2023-03-16T08:42:26;0.20;;;0.20;;
56045;SDS011;41913;51.030;3.706;2023-03-16T08:44:53;0.20;;;0.20;;
56045;SDS011;41913;51.030;3.706;2023-03-16T08:47:20;0.30;;;0.30;;
56045;SDS011;41913;51.030;3.706;2023-03-16T08:49:47;0.30;;;0.30;;
56045;SDS011;41913;51.030;3.706;2023-03-16T08:52:13;0.20;;;0.20;;
56045;SDS011;41913;51.030;3.706;2023-03-16T08:54:40;0.17;;;0.17;;
56045;SDS011;41913;51.030;3.706;2023-03-16T08:57:06;0.20;;;0.20;;
56045;SDS011;41913;51.030;3.706;2023-03-16T08:59:33;0.98;;;0.20;;
56045;SDS011;41913;51.030;3.706;2023-03-16T09:01:59;0.43;;;0.28;;
56045;SDS011;41913;51.030;3.706;2023-03-16T09:04:24;0.52;;;0.32;;
56045;SDS011;41913;51.030;3.706;2023-03-16T09:06:52;0.35;;;0.35;;
56045;SDS011;41913;51.030;3.706;2023-03-16T09:09:18;0.30;;;0.30;;
56045;SDS011;41913;51.030;3.706;2023-03-16T09:11:43;0.20;;;0.20;;
56045;SDS011;41913;51.030;3.706;2023-03-16T09:14:11;0.60;;;0.50;;
56045;SDS011;41913;51.030;3.706;2023-03-16T09:16:37;0.45;;;0.45;;
56045;SDS011;41913;51.030;3.706;2023-03-16T09:19:03;0.40;;;0.40;;
56045;SDS011;41913;51.030;3.706;2023-03-16T09:21:29;0.25;;;0.20;;
56045;SDS011;41913;51.030;3.706;2023-03-16T09:23:56;0.25;;;0.25;;
56045;SDS011;41913;51.030;3.706;2023-03-16T09:26:21;0.20;;;0.20;;
56045;SDS011;41913;51.030;3.706;2023-03-16T09:28:47;0.55;;;0.55;;
56045;SDS011;41913;51.030;3.706;2023-03-16T09:34:10;0.20;;;0.20;;
56045;SDS011;41913;51.030;3.706;2023-03-16T09:36:36;0.30;;;0.30;;
56045;SDS011;41913;51.030;3.706;2023-03-16T09:39:02;0.20;;;0.20;;
56045;SDS011;41913;51.030;3.706;2023-03-16T09:47:06;0.30;;;0.30;;
56045;SDS011;41913;51.030;3.706;2023-03-16T09:49:36;0.20;;;0.17;;
56045;SDS011;41913;51.030;3.706;2023-03-16T09:57:30;0.20;;;0.20;;
56045;SDS011;41913;51.030;3.706;2023-03-16T10:00:18;0.20;;;0.20;;
56045;SDS011;41913;51.030;3.706;2023-03-16T10:05:46;0.20;;;0.20;;
56045;SDS011;41913;51.030;3.706;2023-03-16T10:08:21;0.30;;;0.30;;
56045;SDS011;41913;51.030;3.706;2023-03-16T10:16:13;0.27;;;0.27;;
56045;SDS011;41913;51.030;3.706;2023-03-16T10:18:48;0.28;;;0.28;;
56045;SDS011;41913;51.030;3.706;2023-03-16T10:21:17;0.20;;;0.20;;
56045;SDS011;41913;51.030;3.706;2023-03-16T10:23:44;0.30;;;0.30;;
56045;SDS011;41913;51.030;3.706;2023-03-16T10:26:21;0.17;;;0.17;;
56045;SDS011;41913;51.030;3.706;2023-03-16T10:28:55;0.30;;;0.30;;
56045;SDS011;41913;51.030;3.706;2023-03-16T10:31:22;0.55;;;0.20;;
56045;SDS011;41913;51.030;3.706;2023-03-16T10:33:49;0.25;;;0.25;;
56045;SDS011;41913;51.030;3.706;2023-03-16T10:36:24;0.20;;;0.20;;
56045;SDS011;41913;51.030;3.706;2023-03-16T10:38:56;1.20;;;0.30;;
56045;SDS011;41913;51.030;3.706;2023-03-16T10:43:56;0.30;;;0.30;;
56045;SDS011;41913;51.030;3.706;2023-03-16T10:46:24;0.30;;;0.30;;
56045;SDS011;41913;51.030;3.706;2023-03-16T10:48:52;0.20;;;0.20;;
56045;SDS011;41913;51.030;3.706;2023-03-16T10:51:28;0.40;;;0.40;;
56045;SDS011;41913;51.030;3.706;2023-03-16T10:53:57;0.32;;;0.32;;
56045;SDS011;41913;51.030;3.706;2023-03-16T10:56:34;0.32;;;0.28;;
56045;SDS011;41913;51.030;3.706;2023-03-16T10:59:11;0.20;;;0.20;;
56045;SDS011;41913;51.030;3.706;2023-03-16T11:01:59;0.30;;;0.30;;
56045;SDS011;41913;51.030;3.706;2023-03-16T11:04:45;0.38;;;0.25;;
56045;SDS011;41913;51.030;3.706;2023-03-16T11:07:18;0.30;;;0.30;;
56045;SDS011;41913;51.030;3.706;2023-03-16T11:09:48;0.22;;;0.22;;
56045;SDS011;41913;51.030;3.706;2023-03-16T11:12:21;0.35;;;0.35;;
56045;SDS011;41913;51.030;3.706;2023-03-16T11:14:50;0.17;;;0.17;;
56045;SDS011;41913;51.030;3.706;2023-03-16T11:17:35;0.25;;;0.25;;
56045;SDS011;41913;51.030;3.706;2023-03-16T11:20:04;0.30;;;0.30;;
56045;SDS011;41913;51.030;3.706;2023-03-16T11:22:38;0.20;;;0.20;;
56045;SDS011;41913;51.030;3.706;2023-03-16T11:25:39;0.40;;;0.40;;
56045;SDS011;41913;51.030;3.706;2023-03-16T11:30:41;0.30;;;0.30;;
56045;SDS011;41913;51.030;3.706;2023-03-16T11:33:32;0.40;;;0.40;;
56045;SDS011;41913;51.030;3.706;2023-03-16T11:55:28;0.30;;;0.20;;
56045;SDS011;41913;51.030;3.706;2023-03-16T12:04:12;0.30;;;0.30;;
56045;SDS011;41913;51.030;3.706;2023-03-16T12:17:48;0.63;;;0.40;;
56045;SDS011;41913;51.030;3.706;2023-03-16T12:20:25;0.30;;;0.30;;
56045;SDS011;41913;51.030;3.706;2023-03-16T12:23:01;2.45;;;0.30;;
56045;SDS011;41913;51.030;3.706;2023-03-16T12:25:38;0.20;;;0.20;;
56045;SDS011;41913;51.030;3.706;2023-03-16T12:28:10;0.20;;;0.20;;
56045;SDS011;41913;51.030;3.706;2023-03-16T12:30:44;0.35;;;0.20;;
56045;SDS011;41913;51.030;3.706;2023-03-16T12:39:20;0.20;;;0.20;;
56045;SDS011;41913;51.030;3.706;2023-03-16T12:50:22;0.65;;;0.30;;
56045;SDS011;41913;51.030;3.706;2023-03-16T12:52:50;0.20;;;0.20;;
56045;SDS011;41913;51.030;3.706;2023-03-16T12:58:03;0.32;;;0.32;;
56045;SDS011;41913;51.030;3.706;2023-03-16T13:00:32;0.22;;;0.22;;
56045;SDS011;41913;51.030;3.706;2023-03-16T13:03:05;0.20;;;0.20;;
56045;SDS011;41913;51.030;3.706;2023-03-16T13:05:42;0.20;;;0.20;;
56045;SDS011;41913;51.030;3.706;2023-03-16T13:08:11;0.30;;;0.30;;
56045;SDS011;41913;51.030;3.706;2023-03-16T13:10:40;0.50;;;0.50;;
56045;SDS011;41913;51.030;3.706;2023-03-16T13:13:16;0.35;;;0.30;;
56045;SDS011;41913;51.030;3.706;2023-03-16T13:15:42;0.35;;;0.35;;
56045;SDS011;41913;51.030;3.706;2023-03-16T13:20:50;0.15;;;0.15;;
56045;SDS011;41913;51.030;3.706;2023-03-16T13:25:43;0.40;;;0.30;;
56045;SDS011;41913;51.030;3.706;2023-03-16T13:28:22;0.20;;;0.20;;
56045;SDS011;41913;51.030;3.706;2023-03-16T13:30:55;0.20;;;0.20;;
56045;SDS011;41913;51.030;3.706;2023-03-16T13:33:25;0.63;;;0.50;;
56045;SDS011;41913;51.030;3.706;2023-03-16T13:35:54;0.22;;;0.22;;
56045;SDS011;41913;51.030;3.706;2023-03-16T13:38:22;0.30;;;0.30;;
56045;SDS011;41913;51.030;3.706;2023-03-16T13:40:56;0.60;;;0.20;;
56045;SDS011;41913;51.030;3.706;2023-03-16T13:43:32;0.20;;;0.20;;
56045;SDS011;41913;51.030;3.706;2023-03-16T13:46:13;0.32;;;0.32;;
56045;SDS011;41913;51.030;3.706;2023-03-16T13:48:43;0.40;;;0.40;;
56045;SDS011;41913;51.030;3.706;2023-03-16T13:51:18;0.20;;;0.20;;
56045;SDS011;41913;51.030;3.706;2023-03-16T13:53:46;0.30;;;0.30;;
56045;SDS011;41913;51.030;3.706;2023-03-16T13:56:15;0.10;;;0.10;;
56045;SDS011;41913;51.030;3.706;2023-03-16T13:58:46;0.30;;;0.30;;
56045;SDS011;41913;51.030;3.706;2023-03-16T14:01:18;0.22;;;0.22;;
56045;SDS011;41913;51.030;3.706;2023-03-16T14:03:51;0.30;;;0.30;;
56045;SDS011;41913;51.030;3.706;2023-03-16T14:06:25;0.20;;;0.20;;
56045;SDS011;41913;51.030;3.706;2023-03-16T14:08:55;0.13;;;0.13;;
56045;SDS011;41913;51.030;3.706;2023-03-16T14:11:25;0.30;;;0.30;;
56045;SDS011;41913;51.030;3.706;2023-03-16T14:13:53;0.20;;;0.20;;
56045;SDS011;41913;51.030;3.706;2023-03-16T14:16:27;0.20;;;0.20;;
56045;SDS011;41913;51.030;3.706;2023-03-16T14:18:57;0.30;;;0.30;;
56045;SDS011;41913;51.030;3.706;2023-03-16T14:21:27;0.20;;;0.20;;
56045;SDS011;41913;51.030;3.706;2023-03-16T14:24:02;0.20;;;0.20;;
56045;SDS011;41913;51.030;3.706;2023-03-16T14:26:47;0.20;;;0.20;;
56045;SDS011;41913;51.030;3.706;2023-03-16T14:29:26;0.20;;;0.20;;
56045;SDS011;41913;51.030;3.706;2023-03-16T14:31:57;0.20;;;0.20;;
56045;SDS011;41913;51.030;3.706;2023-03-16T14:34:59;0.13;;;0.13;;
56045;SDS011;41913;51.030;3.706;2023-03-16T14:37:16;0.03;;;0.03;;
56045;SDS011;41913;51.030;3.706;2023-03-16T14:39:43;0.15;;;0.15;;
56045;SDS011;41913;51.030;3.706;2023-03-16T14:42:12;0.20;;;0.20;;
56045;SDS011;41913;51.030;3.706;2023-03-16T14:44:43;0.10;;;0.10;;
56045;SDS011;41913;51.030;3.706;2023-03-16T14:47:12;0.20;;;0.20;;
56045;SDS011;41913;51.030;3.706;2023-03-16T14:49:48;0.28;;;0.10;;
56045;SDS011;41913;51.030;3.706;2023-03-16T14:54:52;0.20;;;0.20;;
56045;SDS011;41913;51.030;3.706;2023-03-16T14:57:19;0.30;;;0.30;;
56045;SDS011;41913;51.030;3.706;2023-03-16T14:59:45;0.08;;;0.08;;
56045;SDS011;41913;51.030;3.706;2023-03-16T15:02:30;0.10;;;0.10;;
56045;SDS011;41913;51.030;3.706;2023-03-16T15:04:58;0.20;;;0.20;;
56045;SDS011;41913;51.030;3.706;2023-03-16T15:07:26;0.10;;;0.10;;
56045;SDS011;41913;51.030;3.706;2023-03-16T15:12:47;0.10;;;0.10;;
56045;SDS011;41913;51.030;3.706;2023-03-16T15:17:49;0.20;;;0.20;;
56045;SDS011;41913;51.030;3.706;2023-03-16T15:20:20;0.30;;;0.20;;
56045;SDS011;41913;51.030;3.706;2023-03-16T15:22:50;0.10;;;0.10;;
56045;SDS011;41913;51.030;3.706;2023-03-16T15:25:22;0.10;;;0.10;;
56045;SDS011;41913;51.030;3.706;2023-03-16T15:27:52;0.20;;;0.20;;
56045;SDS011;41913;51.030;3.706;2023-03-16T15:30:22;0.30;;;0.30;;
56045;SDS011;41913;51.030;3.706;2023-03-16T15:32:49;0.10;;;0.10;;
56045;SDS011;41913;51.030;3.706;2023-03-16T15:35:16;0.22;;;0.22;;
56045;SDS011;41913;51.030;3.706;2023-03-16T15:37:42;0.20;;;0.20;;
56045;SDS011;41913;51.030;3.706;2023-03-16T15:40:15;0.20;;;0.20;;
56045;SDS011;41913;51.030;3.706;2023-03-16T15:42:43;0.20;;;0.20;;
56045;SDS011;41913;51.030;3.706;2023-03-16T15:45:13;0.20;;;0.20;;
56045;SDS011;41913;51.030;3.706;2023-03-16T15:47:48;0.25;;;0.25;;
56045;SDS011;41913;51.030;3.706;2023-03-16T15:50:16;0.20;;;0.20;;
56045;SDS011;41913;51.030;3.706;2023-03-16T15:52:45;0.20;;;0.20;;
56045;SDS011;41913;51.030;3.706;2023-03-16T15:55:15;0.30;;;0.20;;
56045;SDS011;41913;51.030;3.706;2023-03-16T15:57:55;0.20;;;0.20;;
56045;SDS011;41913;51.030;3.706;2023-03-16T16:00:33;0.28;;;0.28;;
56045;SDS011;41913;51.030;3.706;2023-03-16T16:03:03;0.20;;;0.20;;
56045;SDS011;41913;51.030;3.706;2023-03-16T16:05:32;0.20;;;0.20;;
56045;SDS011;41913;51.030;3.706;2023-03-16T16:07:58;0.22;;;0.22;;
56045;SDS011;41913;51.030;3.706;2023-03-16T16:10:25;0.10;;;0.10;;
56045;SDS011;41913;51.030;3.706;2023-03-16T16:12:54;0.20;;;0.20;;
56045;SDS011;41913;51.030;3.706;2023-03-16T16:17:55;0.20;;;0.20;;
56045;SDS011;41913;51.030;3.706;2023-03-16T16:20:23;0.40;;;0.40;;
56045;SDS011;41913;51.030;3.706;2023-03-16T16:22:51;0.10;;;0.10;;
56045;SDS011;41913;51.030;3.706;2023-03-16T16:25:19;0.20;;;0.20;;
56045;SDS011;41913;51.030;3.706;2023-03-16T16:27:49;0.10;;;0.10;;
56045;SDS011;41913;51.030;3.706;2023-03-16T16:32:46;0.20;;;0.20;;
56045;SDS011;41913;51.030;3.706;2023-03-16T16:35:16;0.20;;;0.20;;
56045;SDS011;41913;51.030;3.706;2023-03-16T16:37:44;0.28;;;0.28;;
56045;SDS011;41913;51.030;3.706;2023-03-16T16:40:19;0.28;;;0.28;;
56045;SDS011;41913;51.030;3.706;2023-03-16T16:42:48;0.10;;;0.10;;
56045;SDS011;41913;51.030;3.706;2023-03-16T16:45:23;0.15;;;0.15;;
56045;SDS011;41913;51.030;3.706;2023-03-16T16:47:50;0.10;;;0.10;;
56045;SDS011;41913;51.030;3.706;2023-03-16T16:50:23;0.22;;;0.22;;
56045;SDS011;41913;51.030;3.706;2023-03-16T16:52:50;0.10;;;0.10;;
56045;SDS011;41913;51.030;3.706;2023-03-16T16:55:17;0.20;;;0.17;;
56045;SDS011;41913;51.030;3.706;2023-03-16T16:57:43;0.20;;;0.10;;